createdAt,value
2018-12-25T00:00:53.286Z,12.83
2018-12-25T00:03:22.720Z,12.77
2018-12-25T00:05:52.110Z,14.17
2018-12-25T00:08:21.508Z,12.67
2018-12-25T00:10:50.924Z,12.13
2018-12-25T00:13:20.312Z,13.60
2018-12-25T00:15:49.725Z,11.87
2018-12-25T00:18:19.108Z,14.67
2018-12-25T00:20:48.527Z,12.87
2018-12-25T00:23:17.944Z,11.67
2018-12-25T00:25:47.311Z,16.43
2018-12-25T00:28:16.703Z,11.97
2018-12-25T00:30:46.107Z,13.20
2018-12-25T00:33:15.489Z,12.37
2018-12-25T00:35:44.879Z,14.17
2018-12-25T00:38:14.287Z,14.53
2018-12-25T00:40:43.671Z,14.63
2018-12-25T00:43:13.057Z,12.83
2018-12-25T00:45:42.463Z,13.70
2018-12-25T00:48:11.839Z,15.67
2018-12-25T00:50:41.239Z,14.37
2018-12-25T00:53:10.615Z,16.00
2018-12-25T00:55:40.037Z,15.13
2018-12-25T00:58:09.409Z,13.03
2018-12-25T01:00:38.867Z,14.13
2018-12-25T01:03:08.200Z,12.83
2018-12-25T01:05:37.871Z,13.17
2018-12-25T01:08:07.267Z,15.90
2018-12-25T01:10:36.651Z,13.03
2018-12-25T01:13:06.279Z,14.63
2018-12-25T01:15:35.664Z,16.90
2018-12-25T01:18:05.068Z,14.23
2018-12-25T01:20:34.486Z,13.00
2018-12-25T01:23:04.017Z,16.40
2018-12-25T01:25:33.438Z,17.27
2018-12-25T01:28:02.824Z,14.33
2018-12-25T01:30:32.228Z,11.83
2018-12-25T01:33:01.676Z,13.90
2018-12-25T01:35:31.082Z,13.50
2018-12-25T01:38:00.486Z,12.07
2018-12-25T01:40:29.874Z,12.67
2018-12-25T01:42:59.313Z,15.73
2018-12-25T01:45:28.683Z,11.87
2018-12-25T01:47:58.195Z,15.40
2018-12-25T01:50:27.576Z,13.53
2018-12-25T01:52:56.953Z,15.03
2018-12-25T01:55:26.994Z,14.80
2018-12-25T01:57:56.395Z,13.23
2018-12-25T02:00:25.794Z,13.83
2018-12-25T02:02:55.183Z,17.37
2018-12-25T02:05:24.607Z,15.23
2018-12-25T02:07:54.266Z,12.47
2018-12-25T02:10:23.634Z,16.47
2018-12-25T02:12:53.052Z,13.83
2018-12-25T02:15:22.433Z,14.20
2018-12-25T02:17:51.838Z,13.50
2018-12-25T02:20:21.210Z,15.93
2018-12-25T02:22:50.727Z,13.47
2018-12-25T02:25:20.143Z,12.43
2018-12-25T02:27:49.541Z,14.63
2018-12-25T02:30:18.965Z,13.60
2018-12-25T02:32:48.578Z,15.40
2018-12-25T02:35:18.158Z,14.60
2018-12-25T02:37:47.527Z,15.07
2018-12-25T02:40:17.032Z,15.60
2018-12-25T02:42:46.426Z,13.23
2018-12-25T02:45:15.809Z,14.23
2018-12-25T02:47:45.231Z,17.33
2018-12-25T02:50:14.635Z,14.33
2018-12-25T02:52:44.063Z,14.40
2018-12-25T02:55:13.463Z,15.30
2018-12-25T02:57:42.990Z,13.03
2018-12-25T03:00:12.375Z,14.70
2018-12-25T03:02:41.993Z,14.53
2018-12-25T03:05:11.448Z,16.33
2018-12-25T03:07:40.921Z,17.47
2018-12-25T03:10:10.417Z,15.67
2018-12-25T03:12:39.806Z,13.83
2018-12-25T03:15:09.378Z,14.43
2018-12-25T03:17:39.074Z,14.87
2018-12-25T03:20:08.566Z,14.77
2018-12-25T03:22:37.998Z,18.33
2018-12-25T03:25:07.369Z,18.50
2018-12-25T03:27:36.880Z,17.07
2018-12-25T03:30:06.321Z,16.57
2018-12-25T03:32:35.761Z,15.87
2018-12-25T03:35:05.205Z,18.83
2018-12-25T03:37:34.577Z,20.07
2018-12-25T03:40:04.100Z,18.00
2018-12-25T03:42:33.767Z,18.90
2018-12-25T03:45:03.225Z,18.47
2018-12-25T03:47:32.610Z,17.03
2018-12-25T03:50:10.419Z,17.07
2018-12-25T03:52:33.288Z,17.77
2018-12-25T03:55:02.719Z,15.93
2018-12-25T03:57:32.120Z,15.23
2018-12-25T04:00:01.505Z,19.07
2018-12-25T04:02:31.215Z,18.20
2018-12-25T04:05:00.612Z,17.67
2018-12-25T04:07:29.979Z,16.43
2018-12-25T04:09:59.428Z,17.30
2018-12-25T04:12:28.857Z,15.73
2018-12-25T04:14:58.451Z,17.63
2018-12-25T04:17:28.077Z,16.30
2018-12-25T04:19:57.449Z,16.10
2018-12-25T04:22:27.035Z,13.67
2018-12-25T04:24:56.414Z,17.53
2018-12-25T04:27:27.464Z,14.97
2018-12-25T04:29:56.845Z,12.87
2018-12-25T04:32:26.263Z,12.50
2018-12-25T04:34:55.698Z,12.83
2018-12-25T04:37:25.102Z,15.27
2018-12-25T04:39:54.508Z,11.03
2018-12-25T04:42:23.894Z,16.77
2018-12-25T04:44:53.652Z,18.13
2018-12-25T04:47:23.040Z,13.07
2018-12-25T04:49:52.442Z,11.30
2018-12-25T04:52:21.824Z,14.67
2018-12-25T04:54:51.211Z,14.80
2018-12-25T04:57:20.620Z,13.20
2018-12-25T04:59:50.104Z,12.73
2018-12-25T05:02:19.512Z,14.83
2018-12-25T05:04:49.721Z,13.27
2018-12-25T05:07:19.220Z,13.10
2018-12-25T05:09:48.721Z,15.70
2018-12-25T05:12:18.801Z,14.77
2018-12-25T05:14:48.204Z,16.93
2018-12-25T05:17:17.586Z,15.70
2018-12-25T05:19:47.005Z,14.90
2018-12-25T05:22:16.397Z,12.77
2018-12-25T05:24:45.936Z,15.77
2018-12-25T05:27:15.373Z,12.87
2018-12-25T05:29:44.783Z,13.50
2018-12-25T05:32:14.256Z,14.10
2018-12-25T05:34:43.693Z,13.30
2018-12-25T05:37:13.131Z,14.57
2018-12-25T05:39:42.499Z,15.90
2018-12-25T05:42:11.998Z,15.53
2018-12-25T05:44:43.361Z,14.63
2018-12-25T05:47:12.395Z,16.90
2018-12-25T05:49:41.808Z,15.37
2018-12-25T05:52:11.183Z,15.17
2018-12-25T05:54:40.592Z,14.57
2018-12-25T05:57:09.971Z,13.83
2018-12-25T05:59:39.399Z,15.07
2018-12-25T06:02:08.787Z,14.83
2018-12-25T06:04:38.163Z,13.70
2018-12-25T06:07:07.579Z,14.63
2018-12-25T06:09:36.971Z,16.63
2018-12-25T06:12:06.645Z,19.47
2018-12-25T06:14:36.012Z,15.40
2018-12-25T06:17:05.383Z,17.97
2018-12-25T06:19:34.795Z,16.20
2018-12-25T06:22:04.192Z,16.03
2018-12-25T06:24:33.600Z,19.17
2018-12-25T06:27:02.959Z,16.73
2018-12-25T06:29:32.523Z,16.20
2018-12-25T06:32:01.922Z,14.20
2018-12-25T06:34:31.295Z,13.73
2018-12-25T06:37:00.700Z,14.07
2018-12-25T06:39:30.150Z,14.63
2018-12-25T06:41:59.585Z,15.53
2018-12-25T06:44:28.951Z,13.20
2018-12-25T06:46:58.366Z,15.47
2018-12-25T06:49:27.743Z,17.17
2018-12-25T06:51:57.055Z,15.80
2018-12-25T06:54:26.473Z,16.17
2018-12-25T06:56:55.843Z,17.20
2018-12-25T06:59:25.413Z,17.00
2018-12-25T07:01:54.812Z,15.50
2018-12-25T07:04:24.191Z,14.57
2018-12-25T07:06:53.595Z,19.07
2018-12-25T07:09:23.229Z,16.03
2018-12-25T07:11:52.628Z,17.47
2018-12-25T07:14:22.000Z,17.80
2018-12-25T07:16:51.400Z,17.67
2018-12-25T07:19:20.783Z,19.10
2018-12-25T07:21:50.192Z,18.77
2018-12-25T07:24:19.629Z,16.57
2018-12-25T07:26:49.016Z,20.23
2018-12-25T07:29:18.416Z,22.47
2018-12-25T07:31:47.819Z,18.10
2018-12-25T07:34:17.211Z,16.63
2018-12-25T07:36:46.615Z,18.13
2018-12-25T07:39:16.015Z,18.43
2018-12-25T07:41:45.557Z,20.60
2018-12-25T07:44:14.944Z,20.47
2018-12-25T07:46:44.324Z,20.60
2018-12-25T07:49:13.744Z,18.23
2018-12-25T07:51:43.118Z,18.73
2018-12-25T07:54:12.536Z,19.70
2018-12-25T07:56:41.916Z,20.27
2018-12-25T07:59:11.308Z,19.83
2018-12-25T08:01:40.727Z,20.80
2018-12-25T08:04:10.135Z,19.77
2018-12-25T08:06:39.715Z,18.97
2018-12-25T08:09:09.096Z,20.90
2018-12-25T08:11:38.477Z,18.27
2018-12-25T08:14:07.891Z,19.37
2018-12-25T08:16:39.729Z,24.70
2018-12-25T08:19:09.153Z,21.10
2018-12-25T08:21:38.565Z,18.40
2018-12-25T08:24:08.075Z,25.67
2018-12-25T08:26:37.460Z,18.77
2018-12-25T08:29:06.843Z,21.80
2018-12-25T08:31:36.263Z,18.60
2018-12-25T08:34:05.689Z,20.97
2018-12-25T08:36:36.482Z,18.30
2018-12-25T08:39:07.631Z,16.60
2018-12-25T08:41:37.107Z,17.67
2018-12-25T08:44:06.516Z,18.37
2018-12-25T08:46:35.916Z,20.33
2018-12-25T08:49:05.518Z,16.80
2018-12-25T08:51:37.791Z,15.57
2018-12-25T08:54:06.119Z,17.10
2018-12-25T08:56:35.746Z,15.30
2018-12-25T08:59:05.131Z,12.43
2018-12-25T09:01:34.552Z,12.07
2018-12-25T09:04:03.944Z,13.83
2018-12-25T09:06:33.535Z,14.03
2018-12-25T09:09:03.547Z,11.23
2018-12-25T09:11:33.355Z,16.37
2018-12-25T09:14:03.036Z,13.23
2018-12-25T09:16:32.420Z,14.70
2018-12-25T09:19:01.822Z,18.87
2018-12-25T09:21:31.197Z,15.03
2018-12-25T09:24:00.683Z,15.10
2018-12-25T09:26:30.105Z,13.17
2018-12-25T09:28:59.487Z,15.10
2018-12-25T09:31:28.913Z,18.87
2018-12-25T09:33:58.432Z,56.03
2018-12-25T09:36:27.845Z,131.70
2018-12-25T09:38:57.288Z,17.23
2018-12-25T09:41:26.737Z,79.90
2018-12-25T09:43:56.115Z,64.70
2018-12-25T09:46:25.500Z,16.13
2018-12-25T09:48:54.894Z,15.70
2018-12-25T09:51:24.195Z,18.50
2018-12-25T09:53:53.650Z,15.67
2018-12-25T09:56:22.995Z,13.70
2018-12-25T09:58:52.508Z,15.83
2018-12-25T10:01:21.891Z,13.77
2018-12-25T10:03:51.274Z,17.73
2018-12-25T10:06:20.699Z,18.97
2018-12-25T10:08:50.107Z,17.30
2018-12-25T10:11:19.508Z,15.27
2018-12-25T10:13:48.901Z,15.57
2018-12-25T10:16:18.296Z,13.97
2018-12-25T10:18:47.691Z,14.03
2018-12-25T10:21:17.095Z,12.43
2018-12-25T10:23:46.463Z,11.87
2018-12-25T10:26:15.943Z,13.53
2018-12-25T10:28:45.348Z,14.13
2018-12-25T10:31:14.743Z,14.20
2018-12-25T10:33:44.112Z,12.87
2018-12-25T10:36:14.050Z,11.70
2018-12-25T10:38:43.452Z,13.30
2018-12-25T10:41:12.887Z,13.27
2018-12-25T10:43:42.307Z,13.53
2018-12-25T10:46:11.687Z,15.73
2018-12-25T10:48:41.065Z,13.23
2018-12-25T10:51:10.526Z,12.47
2018-12-25T10:53:39.910Z,12.93
2018-12-25T10:56:09.328Z,12.90
2018-12-25T10:58:38.710Z,11.13
2018-12-25T11:01:19.078Z,11.90
2018-12-25T11:03:48.470Z,12.00
2018-12-25T11:06:17.850Z,11.27
2018-12-25T11:08:47.271Z,15.13
2018-12-25T11:11:16.655Z,13.00
2018-12-25T11:13:46.098Z,12.00
2018-12-25T11:16:15.533Z,11.60
2018-12-25T11:18:49.021Z,13.77
2018-12-25T11:21:16.000Z,15.30
2018-12-25T11:23:45.388Z,15.93
2018-12-25T11:26:14.898Z,14.90
2018-12-25T11:28:44.325Z,12.17
2018-12-25T11:31:13.752Z,10.50
2018-12-25T11:33:43.192Z,10.73
2018-12-25T11:36:12.644Z,9.33
2018-12-25T11:38:42.099Z,11.20
2018-12-25T11:41:11.492Z,9.73
2018-12-25T11:43:40.887Z,8.70
2018-12-25T11:46:10.330Z,13.40
2018-12-25T11:48:39.704Z,10.97
2018-12-25T11:51:09.113Z,10.87
2018-12-25T11:53:38.491Z,10.20
2018-12-25T11:56:07.921Z,11.03
2018-12-25T11:58:37.316Z,9.70
2018-12-25T12:01:06.703Z,10.03
2018-12-25T12:03:36.108Z,10.37
2018-12-25T12:06:05.527Z,16.53
2018-12-25T12:08:34.951Z,13.33
2018-12-25T12:11:04.348Z,14.20
2018-12-25T12:13:33.767Z,12.20
2018-12-25T12:16:03.147Z,13.07
2018-12-25T12:18:32.697Z,10.73
2018-12-25T12:21:02.104Z,8.77
2018-12-25T12:23:31.513Z,9.70
2018-12-25T12:26:00.932Z,10.33
2018-12-25T12:28:30.335Z,10.37
2018-12-25T12:30:59.763Z,13.97
2018-12-25T12:33:29.177Z,15.67
2018-12-25T12:35:58.687Z,9.33
2018-12-25T12:38:28.033Z,11.87
2018-12-25T12:40:57.517Z,11.20
2018-12-25T12:43:26.924Z,17.03
2018-12-25T12:45:56.316Z,13.63
2018-12-25T12:48:25.749Z,13.00
2018-12-25T12:50:55.137Z,9.13
2018-12-25T12:53:24.537Z,11.93
2018-12-25T12:55:53.991Z,11.87
2018-12-25T12:58:24.484Z,12.07
2018-12-25T13:00:53.933Z,15.00
2018-12-25T13:03:23.319Z,8.63
2018-12-25T13:05:52.751Z,16.77
2018-12-25T13:08:22.173Z,13.10
2018-12-25T13:10:51.589Z,10.87
2018-12-25T13:13:20.984Z,9.33
2018-12-25T13:15:50.384Z,8.03
2018-12-25T13:18:19.791Z,8.40
2018-12-25T13:20:49.188Z,7.90
2018-12-25T13:23:18.609Z,10.37
2018-12-25T13:25:48.371Z,7.17
2018-12-25T13:28:17.773Z,8.07
2018-12-25T13:30:47.215Z,12.23
2018-12-25T13:33:16.621Z,11.33
2018-12-25T13:35:46.043Z,11.00
2018-12-25T13:38:15.481Z,12.00
2018-12-25T13:40:44.929Z,8.23
2018-12-25T13:43:14.339Z,10.00
2018-12-25T13:45:43.676Z,6.50
2018-12-25T13:48:13.180Z,8.57
2018-12-25T13:50:42.591Z,7.40
2018-12-25T13:53:12.115Z,6.27
2018-12-25T13:55:41.515Z,10.17
2018-12-25T13:58:10.911Z,39.00
2018-12-25T14:00:40.335Z,10.57
2018-12-25T14:03:09.723Z,9.13
2018-12-25T14:05:39.147Z,11.10
2018-12-25T14:08:08.567Z,9.80
2018-12-25T14:10:38.050Z,10.43
2018-12-25T14:13:07.544Z,11.37
2018-12-25T14:15:36.937Z,10.77
2018-12-25T14:18:06.364Z,14.17
2018-12-25T14:20:35.760Z,11.67
2018-12-25T14:23:11.225Z,16.33
2018-12-25T14:25:36.248Z,13.77
2018-12-25T14:28:05.679Z,14.87
2018-12-25T14:30:35.076Z,26.53
2018-12-25T14:33:04.462Z,12.50
2018-12-25T14:35:33.885Z,11.13
2018-12-25T14:38:03.591Z,10.70
2018-12-25T14:40:33.043Z,13.87
2018-12-25T14:43:02.501Z,13.30
2018-12-25T14:45:31.868Z,10.23
2018-12-25T14:48:01.279Z,10.57
2018-12-25T14:50:30.676Z,11.67
2018-12-25T14:53:00.112Z,13.47
2018-12-25T14:55:29.520Z,13.47
2018-12-25T14:57:59.070Z,11.43
2018-12-25T15:00:28.446Z,17.03
2018-12-25T15:02:57.859Z,16.53
2018-12-25T15:05:27.310Z,13.67
2018-12-25T15:07:56.729Z,12.70
2018-12-25T15:10:26.143Z,12.20
2018-12-25T15:12:55.540Z,14.87
2018-12-25T15:15:24.947Z,13.93
2018-12-25T18:37:47.114Z,40.03
2018-12-25T18:40:16.520Z,26.90
2018-12-25T18:42:45.928Z,29.37
2018-12-25T18:45:15.384Z,28.13
2018-12-25T18:47:44.775Z,24.93
2018-12-25T18:50:14.165Z,26.60
2018-12-25T18:52:43.620Z,28.80
2018-12-25T18:55:13.206Z,38.77
2018-12-25T18:57:42.741Z,26.17
2018-12-25T19:00:12.460Z,29.47
2018-12-25T19:02:42.136Z,33.13
2018-12-25T19:05:11.573Z,31.90
2018-12-25T19:07:41.087Z,26.13
2018-12-25T19:10:11.021Z,25.13
2018-12-25T19:12:40.495Z,25.37
2018-12-25T19:15:22.327Z,30.13
2018-12-25T19:17:52.727Z,27.83
2018-12-25T19:20:22.067Z,24.23
2018-12-25T19:22:51.450Z,34.83
2018-12-25T19:25:20.871Z,33.10
2018-12-25T19:27:50.272Z,26.60
2018-12-25T19:30:22.047Z,27.23
2018-12-25T19:32:51.479Z,34.13
2018-12-25T19:35:20.871Z,34.23
2018-12-25T19:37:50.292Z,32.57
2018-12-25T19:40:20.522Z,28.57
2018-12-25T19:42:49.919Z,29.47
2018-12-25T19:45:19.834Z,30.53
2018-12-25T19:47:49.219Z,47.53
2018-12-25T19:50:18.691Z,38.07
2018-12-25T19:52:48.162Z,41.73
2018-12-25T19:55:17.543Z,29.73
2018-12-25T19:57:46.955Z,25.53
2018-12-25T20:00:16.604Z,28.40
2018-12-25T20:03:06.936Z,33.70
2018-12-25T20:06:38.492Z,27.63
2018-12-25T20:09:49.161Z,26.90
2018-12-25T20:12:55.384Z,25.70
2018-12-25T20:16:03.771Z,20.17
2018-12-25T20:18:48.812Z,19.00
2018-12-25T20:22:02.246Z,20.47
2018-12-25T20:25:08.138Z,24.23
2018-12-25T20:27:54.616Z,31.33
2018-12-25T20:31:05.155Z,23.53
2018-12-25T20:33:49.785Z,24.43
2018-12-25T20:36:49.817Z,23.33
2018-12-25T20:40:15.315Z,29.30
2018-12-25T20:43:26.033Z,31.00
2018-12-25T20:46:42.331Z,28.33
2018-12-25T20:50:00.451Z,27.10
2018-12-25T20:53:13.732Z,25.37
2018-12-25T20:56:26.635Z,42.53
2018-12-25T20:59:45.747Z,27.73
2018-12-25T21:02:56.488Z,23.87
2018-12-25T21:05:57.782Z,27.93
2018-12-25T21:09:02.644Z,26.50
2018-12-25T21:12:09.560Z,30.17
2018-12-25T21:15:30.781Z,29.20
2018-12-25T21:18:50.019Z,32.47
2018-12-25T21:21:59.665Z,34.77
2018-12-25T21:25:09.754Z,32.33
2018-12-25T21:27:34.131Z,26.57
2018-12-25T21:30:08.600Z,37.50
2018-12-25T21:32:40.311Z,29.60
2018-12-25T21:35:13.568Z,29.63
2018-12-25T21:37:43.019Z,31.80
2018-12-25T21:40:12.665Z,27.70
2018-12-25T21:42:42.544Z,31.73
2018-12-25T21:45:12.669Z,35.93
2018-12-25T21:47:42.379Z,27.53
2018-12-25T21:50:12.359Z,31.00
2018-12-25T21:52:41.971Z,35.60
2018-12-25T21:55:18.556Z,35.33
2018-12-25T21:57:43.188Z,34.70
2018-12-25T22:00:15.565Z,34.30
2018-12-25T22:02:44.940Z,45.50
2018-12-25T22:05:15.003Z,32.43
2018-12-25T22:07:44.371Z,34.00
2018-12-25T22:10:13.748Z,45.53
2018-12-25T22:12:43.167Z,42.57
2018-12-25T22:15:12.590Z,47.50
2018-12-25T22:17:41.979Z,43.10
2018-12-25T22:20:24.908Z,42.57
2018-12-25T22:22:54.397Z,40.17
2018-12-25T22:25:27.223Z,34.60
2018-12-25T22:27:54.848Z,31.93
2018-12-25T22:30:24.243Z,37.53
2018-12-25T22:32:53.628Z,37.20
2018-12-25T22:35:23.019Z,38.27
2018-12-25T22:37:52.469Z,33.73
2018-12-25T22:40:21.956Z,44.40
2018-12-25T22:42:51.355Z,35.73
2018-12-25T22:45:20.751Z,35.13
2018-12-25T22:47:50.147Z,35.53
2018-12-25T22:50:19.655Z,34.93
2018-12-25T22:52:49.040Z,35.83
2018-12-25T22:55:18.415Z,31.33
2018-12-25T22:57:47.843Z,29.50
2018-12-25T23:00:19.116Z,30.07
2018-12-25T23:02:48.495Z,37.13
2018-12-25T23:05:17.904Z,37.73
2018-12-25T23:07:47.288Z,35.63
2018-12-25T23:10:16.692Z,50.10
2018-12-25T23:12:46.078Z,54.97
2018-12-25T23:15:15.480Z,58.83
2018-12-25T23:17:44.871Z,56.43
2018-12-25T23:20:14.240Z,50.57
2018-12-25T23:22:43.643Z,51.33
2018-12-25T23:25:13.038Z,51.00
2018-12-25T23:27:42.444Z,54.27
2018-12-25T23:30:11.851Z,56.13
2018-12-25T23:32:41.370Z,47.97
2018-12-25T23:35:10.804Z,49.23
2018-12-25T23:37:40.271Z,45.57
2018-12-25T23:40:09.689Z,41.53
2018-12-25T23:42:39.135Z,41.53
2018-12-25T23:45:08.572Z,45.40
2018-12-25T23:47:37.961Z,40.83
2018-12-25T23:50:07.327Z,44.80
2018-12-25T23:52:36.727Z,49.17
2018-12-25T23:55:06.131Z,39.90
2018-12-25T23:57:35.537Z,45.73
